Time;durP1;ratioP1;P1;durP2;ratioP2;P2;SDS_P1;SDS_P2;PMS_P1;PMS_P2;Temp;Humidity;BMP_temperature;BMP_pressure;BME280_temperature;BME280_humidity;BME280_pressure;Samples;Min_cycle;Max_cycle;Signal;HPM_P1;HPM_P2
2024/04/06 00:03:11;;;;;;;5.78;2.70;;;;;;;13.61;100.00;99885.59;10572762;28;20051;-37
2024/04/06 00:08:12;;;;;;;4.43;2.65;;;;;;;13.66;100.00;99890.91;10572146;28;20040;-39
2024/04/06 00:13:12;;;;;;;4.53;2.55;;;;;;;13.72;100.00;99888.34;10570942;28;20408;-40
2024/04/06 00:18:13;;;;;;;7.82;2.90;;;;;;;13.74;100.00;99902.38;10569785;28;20035;-38
2024/04/06 00:23:13;;;;;;;5.07;2.70;;;;;;;13.73;100.00;99904.97;10563922;28;20043;-38
2024/04/06 00:28:14;;;;;;;4.70;2.60;;;;;;;13.70;100.00;99898.84;10568574;28;20404;-40
2024/04/06 00:33:15;;;;;;;4.78;2.70;;;;;;;13.68;100.00;99904.94;10547655;28;20042;-41
2024/04/06 00:38:15;;;;;;;6.25;2.88;;;;;;;13.67;100.00;99896.19;10545297;28;20088;-40
2024/04/06 00:43:16;;;;;;;6.65;2.47;;;;;;;13.62;100.00;99889.97;10565341;28;20065;-39
2024/04/06 00:48:16;;;;;;;4.60;2.60;;;;;;;13.62;100.00;99884.72;10564180;28;20035;-39
2024/04/06 00:53:17;;;;;;;4.47;2.30;;;;;;;13.65;100.00;99876.00;10560544;28;20051;-40
2024/04/06 00:58:19;;;;;;;4.55;2.80;;;;;;;13.61;100.00;99887.34;10562278;28;20032;-38
2024/04/06 01:03:20;;;;;;;3.72;2.50;;;;;;;13.56;100.00;99886.41;10562721;28;20032;-39
2024/04/06 01:08:21;;;;;;;5.70;2.40;;;;;;;13.45;100.00;99883.66;10557562;28;20036;-41
2024/04/06 01:13:21;;;;;;;6.10;2.55;;;;;;;13.36;100.00;99880.91;10555792;28;20051;-40
2024/04/06 01:18:22;;;;;;;4.45;2.20;;;;;;;13.31;100.00;99888.72;10558596;28;20039;-40
2024/04/06 01:23:23;;;;;;;4.07;2.30;;;;;;;13.28;100.00;99893.06;10553241;28;20038;-39
2024/04/06 01:28:24;;;;;;;4.57;2.42;;;;;;;13.24;100.00;99897.34;10559057;28;20041;-41
2024/04/06 01:33:24;;;;;;;6.07;2.50;;;;;;;13.22;100.00;99896.44;10541800;28;20039;-39
2024/04/06 01:38:25;;;;;;;4.65;2.40;;;;;;;13.19;100.00;99901.63;10566389;28;20036;-42
2024/04/06 01:43:26;;;;;;;4.32;2.13;;;;;;;13.19;100.00;99909.50;10570412;28;20051;-42
2024/04/06 01:48:26;;;;;;;5.00;2.40;;;;;;;13.14;100.00;99922.59;10568288;28;20123;-39
2024/04/06 01:53:27;;;;;;;5.30;2.78;;;;;;;13.13;100.00;99926.06;10568934;28;20508;-39
2024/04/06 01:58:28;;;;;;;4.18;2.50;;;;;;;13.11;100.00;99914.66;10567557;28;20043;-38
2024/04/06 02:03:29;;;;;;;4.65;2.50;;;;;;;13.10;100.00;99917.25;10548056;28;20451;-40
2024/04/06 02:08:30;;;;;;;6.13;2.63;;;;;;;13.09;100.00;99916.38;10566728;28;20472;-40
2024/04/06 02:13:31;;;;;;;3.13;2.15;;;;;;;13.07;100.00;99923.38;10564738;28;20039;-39
2024/04/06 02:18:31;;;;;;;5.18;2.47;;;;;;;13.07;100.00;99938.22;10559647;28;20100;-40
2024/04/06 02:23:32;;;;;;;3.70;2.20;;;;;;;13.10;100.00;99923.41;10560885;28;20036;-40
2024/04/06 02:28:32;;;;;;;3.00;1.98;;;;;;;13.13;100.00;99917.28;10566329;28;20032;-41
2024/04/06 02:33:33;;;;;;;4.55;2.20;;;;;;;13.11;100.00;99929.53;10556793;28;20040;-42
2024/04/06 02:38:34;;;;;;;3.38;2.00;;;;;;;13.11;100.00;99929.53;10559211;28;20084;-40
2024/04/06 02:43:34;;;;;;;8.38;2.10;;;;;;;13.11;100.00;99932.16;10556521;28;20035;-39
2024/04/06 02:48:35;;;;;;;6.15;2.20;;;;;;;13.09;100.00;99936.50;10555962;28;20040;-41
2024/04/06 02:53:35;;;;;;;2.97;2.00;;;;;;;13.05;100.00;99945.19;10557648;28;20040;-40
2024/04/06 02:58:36;;;;;;;3.75;2.10;;;;;;;13.07;100.00;99943.47;10557313;28;20413;-40
2024/04/06 03:03:37;;;;;;;5.15;2.13;;;;;;;13.05;100.00;99929.44;10563588;28;20036;-39
2024/04/06 03:08:37;;;;;;;3.97;1.98;;;;;;;13.04;100.00;99932.94;10566363;28;20405;-39
2024/04/06 03:13:38;;;;;;;7.00;2.47;;;;;;;13.00;100.00;99932.88;10565318;28;20063;-40
2024/04/06 03:18:41;;;;;;;5.13;2.00;;;;;;;12.97;100.00;99939.81;10568777;28;20498;-39
2024/04/06 03:23:42;;;;;;;3.42;2.10;;;;;;;12.97;100.00;99937.19;10571979;28;20032;-41
2024/04/06 03:28:43;;;;;;;6.38;2.35;;;;;;;12.98;100.00;99916.22;10576421;28;20512;-40
2024/04/06 03:33:43;;;;;;;5.35;2.20;;;;;;;12.99;100.00;99910.13;10574163;28;20048;-38
2024/04/06 03:38:44;;;;;;;4.30;2.30;;;;;;;12.98;100.00;99918.84;10573599;28;20036;-38
2024/04/06 03:43:44;;;;;;;6.68;2.58;;;;;;;12.96;100.00;99906.56;10550257;28;20035;-39
2024/04/06 03:48:45;;;;;;;5.50;2.50;;;;;;;12.93;100.00;99893.41;10571876;28;20048;-39
2024/04/06 03:53:46;;;;;;;4.63;2.30;;;;;;;12.89;100.00;99900.34;10569373;28;20032;-39
2024/04/06 03:58:46;;;;;;;5.32;2.40;;;;;;;12.89;100.00;99896.84;10565637;28;20048;-39
2024/04/06 04:03:47;;;;;;;3.88;2.28;;;;;;;12.86;100.00;99896.81;10567478;28;20032;-40
2024/04/06 04:08:47;;;;;;;4.07;2.45;;;;;;;12.82;100.00;99889.78;10564957;28;20039;-41
2024/04/06 04:13:49;;;;;;;3.83;2.28;;;;;;;12.75;100.00;99913.28;10566467;28;20040;-40
2024/04/06 04:18:49;;;;;;;4.07;2.50;;;;;;;12.72;100.00;99915.84;10545653;28;20383;-38
2024/04/06 04:23:51;;;;;;;4.25;2.20;;;;;;;12.71;100.00;99903.56;10564207;28;20493;-40
2024/04/06 04:28:51;;;;;;;5.57;2.35;;;;;;;12.71;100.00;99898.31;10560231;28;20089;-38
2024/04/06 04:33:52;;;;;;;4.90;2.10;;;;;;;12.71;100.00;99910.56;10558357;28;20048;-43
2024/04/06 04:38:52;;;;;;;8.20;2.22;;;;;;;12.66;100.00;99913.13;10561435;28;20039;-39
2024/04/06 04:43:53;;;;;;;5.65;2.45;;;;;;;12.62;100.00;99911.28;10557411;28;20047;-37
2024/04/06 04:48:56;;;;;;;2.65;2.15;;;;;;;12.61;100.00;99934.88;10559632;28;20032;-40
2024/04/06 04:53:57;;;;;;;5.78;2.28;;;;;;;12.58;100.00;99922.59;10558412;28;20130;-39
2024/04/06 04:58:58;;;;;;;3.65;2.20;;;;;;;12.51;100.00;99923.34;10558349;28;20028;-38
2024/04/06 05:03:59;;;;;;;4.05;2.40;;;;;;;12.53;100.00;99937.38;10556546;28;20039;-39
2024/04/06 05:08:59;;;;;;;4.78;2.40;;;;;;;12.53;100.00;99929.53;10568114;28;20422;-38
2024/04/06 05:14:00;;;;;;;4.20;2.40;;;;;;;12.51;100.00;99952.19;10552525;28;20127;-39
2024/04/06 05:19:02;;;;;;;5.72;2.42;;;;;;;12.52;100.00;99943.47;10571535;28;20032;-39
2024/04/06 05:24:03;;;;;;;3.63;2.40;;;;;;;12.52;100.00;99939.09;10570849;28;20032;-37
2024/04/06 05:29:04;;;;;;;4.45;2.50;;;;;;;12.50;100.00;99930.34;10571403;28;20032;-40
2024/04/06 05:34:04;;;;;;;5.38;2.50;;;;;;;12.51;100.00;99933.84;10567757;28;20043;-39
2024/04/06 05:39:05;;;;;;;3.58;2.20;;;;;;;12.51;100.00;99931.22;10565279;28;20404;-39
2024/04/06 05:44:06;;;;;;;5.40;2.83;;;;;;;12.52;100.00;99939.09;10564500;28;20289;-40
2024/04/06 05:49:06;;;;;;;5.60;2.63;;;;;;;12.57;100.00;99940.94;10559055;28;20045;-39
2024/04/06 05:54:07;;;;;;;3.58;2.20;;;;;;;12.63;100.00;99935.78;10562571;28;20524;-40
2024/04/06 05:59:07;;;;;;;4.43;2.13;;;;;;;12.65;100.00;99940.19;10564222;28;20036;-41
2024/04/06 06:04:09;;;;;;;3.47;2.47;;;;;;;12.70;100.00;99945.50;10574875;27;20035;-39
2024/04/06 06:09:10;;;;;;;6.00;2.45;;;;;;;12.74;100.00;99934.22;10541280;28;20034;-37
2024/04/06 06:14:11;;;;;;;6.32;2.75;;;;;;;12.85;100.00;99921.28;10560747;28;20397;-40
2024/04/06 06:19:11;;;;;;;5.53;2.50;;;;;;;12.92;100.00;99928.38;10556181;28;20035;-39
2024/04/06 06:24:12;;;;;;;6.95;2.63;;;;;;;13.08;100.00;99913.75;10558297;28;20047;-39
2024/04/06 06:29:13;;;;;;;4.53;2.42;;;;;;;13.22;100.00;99909.56;10559040;28;20032;-40
2024/04/06 06:34:13;;;;;;;2.78;2.10;;;;;;;13.41;100.00;99887.09;10540117;28;20039;-39
2024/04/06 06:39:14;;;;;;;4.05;2.30;;;;;;;13.55;100.00;99874.16;10560782;28;20050;-39
2024/04/06 06:44:14;;;;;;;3.53;2.10;;;;;;;13.67;100.00;99876.94;10562771;28;20039;-40
2024/04/06 06:49:15;;;;;;;4.35;2.20;;;;;;;13.78;100.00;99885.78;10559139;28;20081;-40
2024/04/06 06:54:16;;;;;;;4.32;2.33;;;;;;;13.88;100.00;99887.63;10578508;28;20096;-39
2024/04/06 06:59:16;;;;;;;4.55;2.22;;;;;;;13.97;100.00;99888.63;10577107;28;20040;-38
2024/04/06 07:04:17;;;;;;;6.38;2.28;;;;;;;14.03;100.00;99900.06;10575422;28;20073;-39
2024/04/06 07:09:18;;;;;;;6.63;2.28;;;;;;;14.09;100.00;99881.72;10574275;28;20039;-40
2024/04/06 07:14:18;;;;;;;4.88;2.22;;;;;;;14.25;100.00;99869.59;10573550;28;20043;-40
2024/04/06 07:19:19;;;;;;;5.82;2.28;;;;;;;14.47;100.00;99881.19;10572008;28;20039;-40
2024/04/06 07:24:21;;;;;;;3.50;2.22;;;;;;;14.66;100.00;99876.97;10572190;28;20040;-39
2024/04/06 07:29:21;;;;;;;5.30;2.40;;;;;;;14.70;100.00;99873.50;10569377;28;20063;-40
2024/04/06 07:34:22;;;;;;;4.25;2.40;;;;;;;14.78;100.00;99876.16;10569216;28;20038;-41
2024/04/06 07:39:23;;;;;;;4.88;2.60;;;;;;;15.12;100.00;99865.84;10568746;28;20031;-45
2024/04/06 07:44:23;;;;;;;4.97;2.22;;;;;;;15.36;100.00;99854.56;10564936;28;20036;-40
2024/04/06 07:49:24;;;;;;;4.57;2.40;;;;;;;15.31;100.00;99855.41;10573665;28;20042;-39
2024/04/06 07:54:25;;;;;;;4.03;2.40;;;;;;;15.49;100.00;99845.84;10565065;28;20051;-42
2024/04/06 07:59:25;;;;;;;5.05;2.38;;;;;;;15.63;100.00;99851.13;10563051;28;20036;-38
2024/04/06 08:04:27;;;;;;;4.47;2.53;;;;;;;15.68;100.00;99852.06;10549077;28;20035;-40
2024/04/06 08:09:28;;;;;;;4.50;2.53;;;;;;;15.85;100.00;99845.06;10563238;28;20443;-41
2024/04/06 08:14:29;;;;;;;7.32;2.67;;;;;;;16.29;100.00;99835.44;10544010;28;20404;-40
2024/04/06 08:19:29;;;;;;;4.75;2.50;;;;;;;16.73;100.00;99834.53;10565189;28;20046;-41
2024/04/06 08:24:30;;;;;;;5.38;2.67;;;;;;;16.97;100.00;99839.78;10557914;28;20036;-39
2024/04/06 08:29:32;;;;;;;4.97;2.40;;;;;;;16.97;100.00;99836.25;10556625;28;20447;-40
2024/04/06 08:34:33;;;;;;;4.57;2.63;;;;;;;17.00;100.00;99844.16;10556068;28;20517;-40
2024/04/06 08:39:33;;;;;;;5.65;2.50;;;;;;;16.99;100.00;99843.28;10574945;28;20042;-40
2024/04/06 08:44:42;;;;;;;4.90;2.40;;;;;;;17.04;100.00;99845.94;10574916;28;20050;-41
2024/04/06 08:49:43;;;;;;;6.35;2.50;;;;;;;17.16;100.00;99832.69;10568069;28;20134;-41
2024/04/06 08:54:44;;;;;;;14.93;4.90;;;;;;;17.60;100.00;99836.88;10569587;28;20032;-39
2024/04/06 08:59:44;;;;;;;6.88;2.55;;;;;;;17.83;100.00;99834.16;10567618;28;20036;-39
2024/04/06 09:04:45;;;;;;;6.68;2.65;;;;;;;18.09;100.00;99828.69;10566675;28;20051;-39
2024/04/06 09:09:46;;;;;;;5.10;2.42;;;;;;;18.23;100.00;99825.91;10563675;28;20039;-40
2024/04/06 09:14:47;;;;;;;6.55;2.30;;;;;;;18.31;100.00;99821.44;10543295;28;20132;-40
2024/04/06 09:19:47;;;;;;;4.20;2.15;;;;;;;18.61;100.00;99807.03;10563413;28;20047;-40
2024/04/06 09:24:48;;;;;;;6.10;2.35;;;;;;;18.67;100.00;99814.91;10561055;28;20055;-39
2024/04/06 09:29:48;;;;;;;4.60;2.28;;;;;;;18.83;100.00;99810.38;10560246;28;20028;-39
2024/04/06 09:34:50;;;;;;;5.25;2.60;;;;;;;19.10;100.00;99803.91;10555193;28;20414;-39
2024/04/06 09:39:51;;;;;;;4.13;2.08;;;;;;;19.27;100.00;99797.50;10560548;28;20039;-39
2024/04/06 09:44:53;;;;;;;3.20;2.20;;;;;;;19.30;100.00;99797.47;10521943;28;20036;-39
2024/04/06 09:49:53;;;;;;;3.13;2.13;;;;;;;19.36;100.00;99797.38;10537756;28;20036;-40
2024/04/06 09:54:54;;;;;;;5.53;2.30;;;;;;;19.70;100.00;99787.22;10562281;28;20048;-40
2024/04/06 10:00:01;;;;;;;6.53;2.78;;;;;;;19.90;99.79;99784.25;10538068;28;20039;-40
2024/04/06 10:05:05;;;;;;;4.85;2.53;;;;;;;19.89;97.63;99780.75;10536005;28;20039;-39
2024/04/06 10:10:06;;;;;;;4.15;2.50;;;;;;;19.84;96.02;99764.00;10552226;28;20027;-40
2024/04/06 10:15:10;;;;;;;4.25;2.38;;;;;;;20.03;95.66;99753.09;10554796;28;20497;-40
2024/04/06 10:20:13;;;;;;;5.38;2.00;;;;;;;20.36;89.83;99744.56;10555495;28;20028;-39
2024/04/06 10:25:13;;;;;;;3.70;2.10;;;;;;;20.42;87.50;99735.59;10570399;28;20543;-41
2024/04/06 10:30:14;;;;;;;2.88;2.10;;;;;;;20.60;82.16;99724.66;10569199;28;20039;-39
2024/04/06 10:35:15;;;;;;;4.25;2.10;;;;;;;20.78;79.85;99715.47;10550094;28;20039;-41
2024/04/06 10:40:15;;;;;;;4.63;2.15;;;;;;;20.90;76.74;99710.78;10569560;28;20039;-39
2024/04/06 10:45:16;;;;;;;4.47;2.10;;;;;;;20.98;73.31;99708.84;10547805;28;20123;-41
2024/04/06 10:50:17;;;;;;;4.75;2.10;;;;;;;21.15;71.90;99706.69;10565158;28;20504;-39
2024/04/06 10:55:21;;;;;;;4.90;2.28;;;;;;;21.36;71.98;99704.50;10563209;28;20421;-39
2024/04/06 11:00:22;;;;;;;3.53;2.40;;;;;;;21.58;68.46;99679.16;10548030;28;20027;-40
2024/04/06 11:05:23;;;;;;;3.65;1.90;;;;;;;21.81;72.36;99678.59;10563070;28;20081;-41
2024/04/06 11:10:23;;;;;;;3.53;2.20;;;;;;;21.92;68.48;99675.66;10560356;28;20035;-45
2024/04/06 11:15:27;;;;;;;6.80;2.47;;;;;;;21.96;66.40;99670.22;10560570;28;20046;-41
2024/04/06 11:20:28;;;;;;;4.45;2.33;;;;;;;21.76;63.61;99660.09;10561813;28;20024;-41
2024/04/06 11:25:28;;;;;;;6.78;2.40;;;;;;;21.76;67.82;99659.22;10532552;28;20039;-39
2024/04/06 11:30:29;;;;;;;5.88;2.40;;;;;;;21.67;69.06;99667.44;10565456;28;20046;-39
2024/04/06 11:35:30;;;;;;;4.85;2.53;;;;;;;21.67;65.39;99670.97;10561908;28;20051;-42
2024/04/06 11:40:31;;;;;;;5.05;2.90;;;;;;;21.66;65.17;99669.22;10546403;28;20466;-41
2024/04/06 11:45:31;;;;;;;4.88;2.22;;;;;;;21.65;68.41;99664.78;10559537;28;20085;-39
2024/04/06 11:50:32;;;;;;;3.22;2.20;;;;;;;21.81;68.60;99651.13;10543522;28;20451;-41
2024/04/06 11:55:33;;;;;;;5.38;2.33;;;;;;;21.75;65.88;99649.47;10553341;28;20044;-39
2024/04/06 12:00:33;;;;;;;4.75;2.40;;;;;;;21.99;65.52;99648.84;10520320;28;20509;-40
2024/04/06 12:05:34;;;;;;;4.55;2.30;;;;;;;22.38;62.81;99640.72;10559999;28;20047;-41
2024/04/06 12:10:35;;;;;;;2.80;2.15;;;;;;;22.65;62.31;99640.84;10573659;28;20101;-40
2024/04/06 12:15:40;;;;;;;4.78;2.10;;;;;;;22.75;59.49;99642.31;10570126;28;20492;-41
2024/04/06 12:20:41;;;;;;;3.08;2.30;;;;;;;22.82;59.74;99635.00;10568634;28;20035;-41
2024/04/06 12:25:42;;;;;;;4.90;2.13;;;;;;;22.90;61.50;99630.34;10570015;28;20028;-40
2024/04/06 12:30:43;;;;;;;3.47;1.90;;;;;;;22.93;56.28;99627.56;10568405;28;20044;-39
2024/04/06 12:35:48;;;;;;;5.18;2.00;;;;;;;23.08;57.25;99626.25;10568702;28;20051;-39
2024/04/06 12:40:48;;;;;;;3.13;2.10;;;;;;;23.56;53.86;99607.75;10566674;28;20127;-40
2024/04/06 12:45:49;;;;;;;4.53;1.90;;;;;;;23.80;53.14;99597.22;10549587;28;20079;-39
2024/04/06 12:50:50;;;;;;;4.55;1.90;;;;;;;23.97;50.46;99591.28;10564256;28;20421;-39
2024/04/06 12:55:51;;;;;;;3.15;2.00;;;;;;;24.17;50.17;99594.13;10561988;28;20040;-41
2024/04/06 13:00:52;;;;;;;4.40;1.70;;;;;;;24.09;46.53;99590.84;10543961;28;20040;-39
2024/04/06 13:05:53;;;;;;;2.25;1.70;;;;;;;24.18;45.83;99595.84;10542326;28;20410;-41
2024/04/06 13:10:53;;;;;;;3.78;1.80;;;;;;;24.26;47.85;99598.22;10561882;28;20043;-40
2024/04/06 13:15:54;;;;;;;2.38;1.80;;;;;;;24.15;45.46;99606.66;10558005;28;20047;-39
2024/04/06 13:20:54;;;;;;;2.95;1.70;;;;;;;24.08;45.41;99589.97;10556582;28;20036;-41
2024/04/06 13:25:55;;;;;;;2.28;1.73;;;;;;;24.04;44.93;99574.09;10555997;28;20421;-39
2024/04/06 13:30:56;;;;;;;2.90;1.80;;;;;;;24.27;46.45;99576.81;10534012;28;20059;-39
2024/04/06 13:35:56;;;;;;;3.08;1.85;;;;;;;24.17;43.76;99569.19;10553378;28;20042;-39
2024/04/06 13:40:57;;;;;;;3.60;2.00;;;;;;;24.06;45.57;99564.25;10551984;28;20027;-37
2024/04/06 13:45:58;;;;;;;2.72;1.70;;;;;;;23.96;46.01;99558.38;10550215;28;20401;-40
2024/04/06 13:50:58;;;;;;;2.60;1.90;;;;;;;23.95;47.11;99562.00;10558519;28;20040;-41
2024/04/06 13:55:59;;;;;;;3.38;2.10;;;;;;;23.85;47.36;99544.56;10569718;28;20039;-40
2024/04/06 14:01:00;;;;;;;2.85;1.65;;;;;;;23.96;42.89;99550.38;10546919;28;20040;-40
2024/04/06 14:06:03;;;;;;;2.92;1.50;;;;;;;23.85;44.15;99542.78;10567032;28;20072;-40
2024/04/06 14:11:04;;;;;;;4.53;1.90;;;;;;;23.74;43.61;99544.94;10563416;28;20035;-37
2024/04/06 14:16:05;;;;;;;3.10;1.90;;;;;;;23.77;43.32;99547.50;10566008;28;20408;-41
2024/04/06 14:21:06;;;;;;;3.67;1.67;;;;;;;23.79;43.78;99537.66;10546258;28;20560;-40
2024/04/06 14:26:07;;;;;;;3.10;1.80;;;;;;;23.70;44.25;99539.78;10563064;28;20084;-41
2024/04/06 14:31:07;;;;;;;3.65;1.80;;;;;;;23.60;43.43;99528.53;10563243;28;20047;-40
2024/04/06 14:36:08;;;;;;;4.40;1.98;;;;;;;23.55;43.45;99527.81;10560785;28;20100;-40
2024/04/06 14:41:09;;;;;;;4.78;1.52;;;;;;;23.56;44.70;99526.88;10559603;28;20040;-39
2024/04/06 14:46:10;;;;;;;2.25;1.65;;;;;;;23.50;45.82;99532.41;10544696;28;20036;-40
2024/04/06 14:51:10;;;;;;;4.38;1.80;;;;;;;23.44;46.13;99520.19;10557301;28;20505;-40
2024/04/06 14:56:11;;;;;;;4.93;1.65;;;;;;;23.56;46.47;99540.19;10560440;28;20036;-38
2024/04/06 15:01:12;;;;;;;2.28;1.70;;;;;;;23.84;45.76;99546.34;10563844;28;20039;-40
2024/04/06 15:06:13;;;;;;;3.17;1.90;;;;;;;23.97;45.80;99549.44;10559985;28;20036;-39
2024/04/06 15:11:13;;;;;;;2.92;1.80;;;;;;;23.93;46.45;99557.63;10560444;28;20048;-40
2024/04/06 15:16:14;;;;;;;3.92;1.80;;;;;;;23.89;46.52;99566.69;10559878;28;20117;-40
2024/04/06 15:21:15;;;;;;;3.38;2.10;;;;;;;23.72;47.13;99576.13;10558524;28;20050;-39
2024/04/06 15:26:15;;;;;;;4.78;2.00;;;;;;;23.67;47.73;99580.75;10557077;28;20040;-40
2024/04/06 15:31:16;;;;;;;3.55;1.92;;;;;;;23.67;49.41;99599.41;10556671;28;20039;-41
2024/04/06 15:36:17;;;;;;;3.60;1.90;;;;;;;23.44;49.07;99596.63;10554907;28;20036;-41
2024/04/06 15:41:17;;;;;;;4.07;1.90;;;;;;;23.23;50.48;99588.44;10574523;28;20040;-40
2024/04/06 15:46:18;;;;;;;3.38;1.70;;;;;;;23.13;51.35;99590.53;10574136;28;20492;-39
2024/04/06 15:51:20;;;;;;;3.65;2.00;;;;;;;22.95;51.73;99580.44;10573128;28;20043;-40
2024/04/06 15:56:20;;;;;;;2.55;1.80;;;;;;;22.96;51.51;99570.66;10554386;28;20046;-40
2024/04/06 16:01:21;;;;;;;5.07;1.92;;;;;;;22.99;52.72;99567.88;10551120;28;20054;-40
2024/04/06 16:06:22;;;;;;;2.58;2.03;;;;;;;22.93;54.83;99561.84;10568104;28;20042;-39
2024/04/06 16:11:23;;;;;;;2.67;1.90;;;;;;;22.84;55.99;99556.78;10568909;28;20497;-39
2024/04/06 16:16:24;;;;;;;4.32;1.88;;;;;;;22.81;55.76;99570.19;10566465;28;20043;-39
2024/04/06 16:21:25;;;;;;;2.45;1.95;;;;;;;22.74;56.69;99578.41;10564684;28;20401;-41
2024/04/06 16:26:26;;;;;;;3.70;1.95;;;;;;;22.70;56.14;99585.63;10563293;28;20047;-41
2024/04/06 16:31:26;;;;;;;3.22;2.40;;;;;;;22.55;56.71;99579.00;10562273;28;20092;-42
2024/04/06 16:36:27;;;;;;;2.35;1.90;;;;;;;22.40;58.22;99576.78;10560973;28;20089;-41
2024/04/06 16:41:28;;;;;;;4.40;2.03;;;;;;;22.29;58.00;99571.75;10560203;28;20031;-40
2024/04/06 16:46:28;;;;;;;3.20;2.08;;;;;;;22.17;58.36;99582.75;10571967;27;20045;-40
2024/04/06 16:51:30;;;;;;;2.55;1.90;;;;;;;22.15;57.91;99589.88;10560811;28;20107;-40
2024/04/06 16:56:30;;;;;;;2.58;1.92;;;;;;;22.05;58.77;99591.94;10557972;28;20101;-41
2024/04/06 17:01:31;;;;;;;6.63;2.33;;;;;;;21.97;58.52;99605.44;10556666;28;20046;-39
2024/04/06 17:06:32;;;;;;;5.45;2.28;;;;;;;21.88;59.78;99597.69;10555675;28;20379;-38
2024/04/06 17:11:33;;;;;;;4.50;3.10;;;;;;;21.76;60.33;99614.88;10555879;28;20039;-39
2024/04/06 17:16:33;;;;;;;7.40;4.25;;;;;;;21.68;60.74;99595.56;10550588;28;20058;-39
2024/04/06 17:21:34;;;;;;;5.63;2.85;;;;;;;21.51;60.56;99605.78;10563196;28;20044;-40
2024/04/06 17:26:36;;;;;;;6.05;2.83;;;;;;;21.44;59.96;99621.00;10569986;28;20305;-41
2024/04/06 17:31:37;;;;;;;7.32;3.90;;;;;;;21.37;59.40;99611.41;10569243;28;20500;-40
2024/04/06 17:36:37;;;;;;;8.07;5.70;;;;;;;21.29;59.51;99613.38;10546411;28;20104;-40
2024/04/06 17:41:38;;;;;;;12.82;6.38;;;;;;;21.24;59.37;99628.53;10567497;28;20302;-39
2024/04/06 17:46:39;;;;;;;10.07;4.72;;;;;;;21.12;59.51;99628.81;10565438;28;20091;-42
2024/04/06 17:51:40;;;;;;;5.22;2.42;;;;;;;21.05;58.77;99630.75;10564313;28;20093;-40
2024/04/06 17:56:40;;;;;;;3.33;2.40;;;;;;;20.93;59.29;99639.91;10563018;28;20099;-40
2024/04/06 18:01:41;;;;;;;3.35;2.63;;;;;;;20.81;60.73;99638.38;10547127;28;20039;-41
2024/04/06 18:06:42;;;;;;;5.28;2.67;;;;;;;20.67;63.28;99636.91;10561028;28;20417;-42
2024/04/06 18:11:42;;;;;;;2.70;2.20;;;;;;;20.50;62.38;99632.81;10561119;28;20040;-41
2024/04/06 18:16:43;;;;;;;6.47;4.32;;;;;;;20.41;61.61;99636.50;10538433;28;20497;-40
2024/04/06 18:21:44;;;;;;;6.90;4.90;;;;;;;20.36;61.64;99643.72;10557789;28;20051;-40
2024/04/06 18:26:45;;;;;;;5.45;3.42;;;;;;;20.38;59.78;99639.22;10556788;28;20044;-39
2024/04/06 18:31:46;;;;;;;4.78;2.85;;;;;;;20.37;61.12;99648.09;10550214;28;20413;-37
2024/04/06 18:36:47;;;;;;;5.53;2.95;;;;;;;20.31;61.46;99663.28;10565951;28;20044;-38
2024/04/06 18:41:48;;;;;;;2.88;2.20;;;;;;;20.33;57.82;99658.78;10561755;28;20036;-39
2024/04/06 18:46:49;;;;;;;4.32;2.40;;;;;;;20.30;58.95;99661.53;10565271;28;20039;-40
2024/04/06 18:51:49;;;;;;;4.15;2.20;;;;;;;20.29;58.89;99651.81;10559719;28;20032;-39
2024/04/06 18:56:50;;;;;;;3.28;2.25;;;;;;;20.32;57.74;99659.72;10562237;28;20043;-39
2024/04/06 19:01:51;;;;;;;3.92;2.35;;;;;;;20.33;57.49;99666.75;10561205;28;20047;-39
2024/04/06 19:06:52;;;;;;;3.33;2.30;;;;;;;20.28;58.27;99672.16;10549825;28;20059;-40
2024/04/06 19:11:53;;;;;;;6.28;2.55;;;;;;;20.22;58.93;99671.41;10575752;28;20043;-40
2024/04/06 19:16:54;;;;;;;3.53;2.60;;;;;;;20.08;61.50;99672.53;10573838;28;20089;-40
2024/04/06 19:21:55;;;;;;;7.25;2.45;;;;;;;20.03;61.32;99666.44;10573849;28;20569;-40
2024/04/06 19:26:59;;;;;;;4.82;2.40;;;;;;;20.01;61.12;99680.63;10572576;28;20036;-39
2024/04/06 19:31:59;;;;;;;3.97;2.67;;;;;;;19.92;61.50;99661.34;10571431;28;20089;-40
2024/04/06 19:37:00;;;;;;;3.63;2.40;;;;;;;19.89;61.58;99669.34;10570023;28;20043;-41
2024/04/06 19:42:02;;;;;;;4.10;2.63;;;;;;;19.86;61.92;99666.75;10549366;28;20043;-40
2024/04/06 19:47:03;;;;;;;4.10;2.47;;;;;;;19.90;62.63;99664.91;10567492;28;20032;-41
2024/04/06 19:52:04;;;;;;;4.95;2.58;;;;;;;19.91;62.65;99671.97;10567571;28;20061;-41
2024/04/06 19:57:05;;;;;;;3.60;2.40;;;;;;;19.90;62.28;99659.59;10564654;28;20416;-40
2024/04/06 20:02:06;;;;;;;5.80;2.55;;;;;;;19.89;62.65;99648.13;10563957;28;20043;-41
2024/04/06 20:07:07;;;;;;;4.05;2.40;;;;;;;19.84;63.17;99644.69;10546492;28;20500;-38
2024/04/06 20:12:08;;;;;;;5.25;2.60;;;;;;;19.81;63.25;99636.78;10561211;28;20047;-41
2024/04/06 20:17:08;;;;;;;4.90;2.78;;;;;;;19.78;63.40;99630.66;10524839;28;20126;-40
2024/04/06 20:27:28;;;;;;;4.65;2.90;;;;;;;19.67;63.95;99620.25;10529281;28;20032;-41
2024/04/06 20:32:30;;;;;;;6.82;2.95;;;;;;;19.61;65.19;99607.94;10538149;28;20039;-40
2024/04/06 20:37:31;;;;;;;4.53;2.50;;;;;;;19.58;64.69;99607.97;10558073;28;20298;-40
2024/04/06 20:42:31;;;;;;;6.15;2.58;;;;;;;19.56;64.56;99608.91;10539753;28;20034;-38
2024/04/06 20:47:32;;;;;;;3.72;2.50;;;;;;;19.50;65.28;99596.63;10554727;28;20507;-41
2024/04/06 20:52:33;;;;;;;3.65;2.40;;;;;;;19.48;64.56;99595.78;10572420;28;20039;-40
2024/04/06 20:57:34;;;;;;;4.47;2.50;;;;;;;19.48;63.48;99593.16;10569116;28;20120;-40
2024/04/06 21:02:35;;;;;;;5.90;2.80;;;;;;;19.45;64.14;99583.47;10553067;28;20485;-40
2024/04/06 21:07:36;;;;;;;4.82;2.35;;;;;;;19.44;63.28;99580.81;10569752;28;20043;-39
2024/04/06 21:12:43;;;;;;;4.95;2.47;;;;;;;19.42;62.73;99586.16;10570176;27;20031;-40
2024/04/06 21:17:44;;;;;;;2.83;2.43;;;;;;;19.37;63.58;99584.50;10535046;28;20496;-40
2024/04/06 21:22:45;;;;;;;4.60;2.50;;;;;;;19.38;62.21;99580.97;10571525;28;20043;-39
2024/04/06 21:27:47;;;;;;;4.38;2.30;;;;;;;19.38;62.08;99579.19;10552783;28;20050;-40
2024/04/06 21:32:48;;;;;;;3.97;2.60;;;;;;;19.36;61.83;99577.44;10541065;28;20526;-39
2024/04/06 21:37:49;;;;;;;3.72;2.40;;;;;;;19.29;62.69;99562.56;10535813;28;20134;-40
2024/04/06 21:42:50;;;;;;;4.40;2.47;;;;;;;19.24;62.27;99571.44;10571449;28;20073;-41
2024/04/06 21:47:51;;;;;;;4.65;2.53;;;;;;;19.14;63.61;99563.69;10562346;28;20051;-38
2024/04/06 21:52:51;;;;;;;4.63;2.50;;;;;;;19.09;63.28;99555.78;10560111;28;20092;-40
2024/04/06 21:57:52;;;;;;;4.13;2.40;;;;;;;19.08;62.01;99546.09;10560768;28;20036;-39
2024/04/06 22:02:52;;;;;;;4.45;2.60;;;;;;;19.08;61.54;99553.19;10556871;28;20059;-40
2024/04/06 22:07:53;;;;;;;4.15;2.50;;;;;;;19.02;62.91;99548.84;10555532;28;20047;-42
2024/04/06 22:12:54;;;;;;;4.57;2.33;;;;;;;18.97;62.15;99546.28;10558154;28;20101;-39
2024/04/06 22:17:55;;;;;;;4.35;2.38;;;;;;;18.93;62.72;99549.84;10542711;28;20409;-41
2024/04/06 22:22:59;;;;;;;4.75;2.22;;;;;;;18.86;63.25;99534.09;10556164;28;20044;-40
2024/04/06 22:27:59;;;;;;;5.07;2.30;;;;;;;18.88;60.43;99530.53;10551417;28;20405;-39
2024/04/06 22:33:00;;;;;;;3.97;2.17;;;;;;;18.88;61.19;99541.13;10550200;28;20039;-38
2024/04/06 22:38:00;;;;;;;3.63;2.38;;;;;;;18.87;59.55;99533.19;10570403;28;20031;-39
2024/04/06 22:43:02;;;;;;;3.72;2.30;;;;;;;18.78;60.74;99536.88;10562175;28;20059;-40
2024/04/06 22:48:04;;;;;;;4.07;2.40;;;;;;;18.75;60.54;99540.44;10567831;28;20032;-39
2024/04/06 22:53:04;;;;;;;4.60;2.40;;;;;;;18.67;60.83;99526.41;10563434;28;20489;-38
2024/04/06 22:58:05;;;;;;;4.47;2.30;;;;;;;18.64;60.41;99507.03;10565818;28;20035;-41
2024/04/06 23:03:06;;;;;;;6.00;2.50;;;;;;;18.63;59.12;99507.94;10565020;28;20050;-39
2024/04/06 23:08:06;;;;;;;3.92;2.30;;;;;;;18.57;59.85;99503.63;10564353;28;20038;-38
2024/04/06 23:13:07;;;;;;;5.63;2.53;;;;;;;18.54;58.92;99478.06;10563963;28;20047;-39
2024/04/06 23:18:08;;;;;;;6.65;2.30;;;;;;;18.48;59.63;99486.09;10567840;28;20396;-40